sensor_id;sensor_type;location;lat;lon;timestamp;temperature;humidity
66094;DHT22;52876;49.394;10.892;2022-10-16T00:11:56;15.60;99.90
66094;DHT22;52876;49.394;10.892;2022-10-16T00:24:09;15.50;99.90
66094;DHT22;52876;49.394;10.892;2022-10-16T00:26:37;15.80;99.90
66094;DHT22;52876;49.394;10.892;2022-10-16T00:29:05;15.50;99.90
66094;DHT22;52876;49.394;10.892;2022-10-16T00:38:54;15.60;99.90
66094;DHT22;52876;49.394;10.892;2022-10-16T00:41:22;15.50;99.90
66094;DHT22;52876;49.394;10.892;2022-10-16T00:43:49;15.60;99.90
66094;DHT22;52876;49.394;10.892;2022-10-16T00:46:19;15.60;99.90
66094;DHT22;52876;49.394;10.892;2022-10-16T00:48:50;15.30;99.90
66094;DHT22;52876;49.394;10.892;2022-10-16T00:51:19;15.50;99.90
66094;DHT22;52876;49.394;10.892;2022-10-16T01:03:35;15.40;99.90
66094;DHT22;52876;49.394;10.892;2022-10-16T01:06:25;15.30;99.90
66094;DHT22;52876;49.394;10.892;2022-10-16T01:09:07;15.60;99.90
66094;DHT22;52876;49.394;10.892;2022-10-16T01:11:41;15.30;99.90
66094;DHT22;52876;49.394;10.892;2022-10-16T01:14:18;15.30;99.90
66094;DHT22;52876;49.394;10.892;2022-10-16T01:16:49;15.30;99.90
66094;DHT22;52876;49.394;10.892;2022-10-16T01:19:30;15.20;99.90
66094;DHT22;52876;49.394;10.892;2022-10-16T01:22:01;15.30;99.90
66094;DHT22;52876;49.394;10.892;2022-10-16T01:24:34;15.30;99.90
66094;DHT22;52876;49.394;10.892;2022-10-16T01:27:10;15.30;99.90
66094;DHT22;52876;49.394;10.892;2022-10-16T01:29:40;15.30;99.90
66094;DHT22;52876;49.394;10.892;2022-10-16T01:32:14;15.30;99.90
66094;DHT22;52876;49.394;10.892;2022-10-16T01:34:46;15.30;99.90
66094;DHT22;52876;49.394;10.892;2022-10-16T01:37:15;15.40;99.90
66094;DHT22;52876;49.394;10.892;2022-10-16T01:39:46;16.40;99.90
66094;DHT22;52876;49.394;10.892;2022-10-16T01:42:20;15.30;99.90
66094;DHT22;52876;49.394;10.892;2022-10-16T01:44:48;15.20;99.90
66094;DHT22;52876;49.394;10.892;2022-10-16T01:47:17;15.20;99.90
66094;DHT22;52876;49.394;10.892;2022-10-16T01:49:46;15.20;99.90
66094;DHT22;52876;49.394;10.892;2022-10-16T01:52:14;15.30;99.90
66094;DHT22;52876;49.394;10.892;2022-10-16T01:54:44;15.30;99.90
66094;DHT22;52876;49.394;10.892;2022-10-16T01:57:12;15.20;99.90
66094;DHT22;52876;49.394;10.892;2022-10-16T01:59:44;15.20;99.90
66094;DHT22;52876;49.394;10.892;2022-10-16T02:02:11;18.20;99.90
66094;DHT22;52876;49.394;10.892;2022-10-16T02:04:39;15.20;99.90
66094;DHT22;52876;49.394;10.892;2022-10-16T02:07:10;15.30;99.90
66094;DHT22;52876;49.394;10.892;2022-10-16T02:09:36;15.10;99.90
66094;DHT22;52876;49.394;10.892;2022-10-16T02:12:13;15.20;99.90
66094;DHT22;52876;49.394;10.892;2022-10-16T02:14:42;15.40;99.90
66094;DHT22;52876;49.394;10.892;2022-10-16T02:17:14;15.30;99.90
66094;DHT22;52876;49.394;10.892;2022-10-16T02:19:41;16.00;99.90
66094;DHT22;52876;49.394;10.892;2022-10-16T02:22:10;15.30;99.90
66094;DHT22;52876;49.394;10.892;2022-10-16T02:24:42;15.40;99.90
66094;DHT22;52876;49.394;10.892;2022-10-16T02:27:11;15.30;99.90
66094;DHT22;52876;49.394;10.892;2022-10-16T02:29:42;15.30;99.90
66094;DHT22;52876;49.394;10.892;2022-10-16T02:32:13;15.30;99.90
66094;DHT22;52876;49.394;10.892;2022-10-16T02:37:07;15.10;99.90
66094;DHT22;52876;49.394;10.892;2022-10-16T02:46:53;15.30;99.90
66094;DHT22;52876;49.394;10.892;2022-10-16T03:04:01;15.20;99.90
66094;DHT22;52876;49.394;10.892;2022-10-16T03:21:08;15.10;99.90
66094;DHT22;52876;49.394;10.892;2022-10-16T03:35:51;14.80;99.90
66094;DHT22;52876;49.394;10.892;2022-10-16T03:38:18;14.80;99.90
66094;DHT22;52876;49.394;10.892;2022-10-16T03:55:25;14.80;99.90
66094;DHT22;52876;49.394;10.892;2022-10-16T04:10:06;14.80;99.90
66094;DHT22;52876;49.394;10.892;2022-10-16T04:12:35;14.80;99.90
66094;DHT22;52876;49.394;10.892;2022-10-16T04:29:43;14.60;99.90
66094;DHT22;52876;49.394;10.892;2022-10-16T04:41:56;15.00;99.90
66094;DHT22;52876;49.394;10.892;2022-10-16T04:46:51;14.70;99.90
66094;DHT22;52876;49.394;10.892;2022-10-16T05:03:59;14.80;99.90
66094;DHT22;52876;49.394;10.892;2022-10-16T05:21:07;14.70;99.90
66094;DHT22;52876;49.394;10.892;2022-10-16T05:28:29;14.50;99.90
66094;DHT22;52876;49.394;10.892;2022-10-16T05:38:15;14.40;99.90
66094;DHT22;52876;49.394;10.892;2022-10-16T05:52:56;14.40;99.90
66094;DHT22;52876;49.394;10.892;2022-10-16T05:55:23;14.50;99.90
66094;DHT22;52876;49.394;10.892;2022-10-16T06:10:04;14.80;99.90
66094;DHT22;52876;49.394;10.892;2022-10-16T06:12:32;14.80;99.90
66094;DHT22;52876;49.394;10.892;2022-10-16T06:29:39;15.00;99.90
66094;DHT22;52876;49.394;10.892;2022-10-16T06:46:48;15.10;99.90
66094;DHT22;52876;49.394;10.892;2022-10-16T06:59:00;15.00;99.90
66094;DHT22;52876;49.394;10.892;2022-10-16T07:01:28;15.10;99.90
66094;DHT22;52876;49.394;10.892;2022-10-16T07:03:55;13.30;99.90
66094;DHT22;52876;49.394;10.892;2022-10-16T07:06:24;15.00;99.90
66094;DHT22;52876;49.394;10.892;2022-10-16T07:08:50;13.50;99.90
66094;DHT22;52876;49.394;10.892;2022-10-16T07:11:19;15.00;99.90
66094;DHT22;52876;49.394;10.892;2022-10-16T07:16:14;15.10;99.90
66094;DHT22;52876;49.394;10.892;2022-10-16T07:18:41;15.10;99.90
66094;DHT22;52876;49.394;10.892;2022-10-16T07:21:09;15.10;99.90
66094;DHT22;52876;49.394;10.892;2022-10-16T07:35:49;15.50;99.90
66094;DHT22;52876;49.394;10.892;2022-10-16T07:38:16;15.30;99.90
66094;DHT22;52876;49.394;10.892;2022-10-16T07:48:02;15.40;99.90
66094;DHT22;52876;49.394;10.892;2022-10-16T07:55:23;15.60;99.90
66094;DHT22;52876;49.394;10.892;2022-10-16T08:00:15;15.80;99.90
66094;DHT22;52876;49.394;10.892;2022-10-16T08:10:03;15.90;99.90
66094;DHT22;52876;49.394;10.892;2022-10-16T08:12:32;16.00;99.90
66094;DHT22;52876;49.394;10.892;2022-10-16T08:22:19;16.10;99.90
66094;DHT22;52876;49.394;10.892;2022-10-16T08:29:40;16.40;99.90
66094;DHT22;52876;49.394;10.892;2022-10-16T08:34:33;16.60;99.90
66094;DHT22;52876;49.394;10.892;2022-10-16T08:42:16;16.80;99.90
66094;DHT22;52876;49.394;10.892;2022-10-16T08:45:02;16.80;99.90
66094;DHT22;52876;49.394;10.892;2022-10-16T08:47:43;16.70;99.90
66094;DHT22;52876;49.394;10.892;2022-10-16T08:50:12;16.80;99.90
66094;DHT22;52876;49.394;10.892;2022-10-16T08:52:43;16.90;99.90
66094;DHT22;52876;49.394;10.892;2022-10-16T08:55:20;17.10;99.90
66094;DHT22;52876;49.394;10.892;2022-10-16T09:00:18;17.30;99.90
66094;DHT22;52876;49.394;10.892;2022-10-16T09:02:52;17.40;99.90
66094;DHT22;52876;49.394;10.892;2022-10-16T09:05:27;17.60;99.90
66094;DHT22;52876;49.394;10.892;2022-10-16T09:08:01;17.70;99.90
66094;DHT22;52876;49.394;10.892;2022-10-16T09:10:38;17.80;99.90
66094;DHT22;52876;49.394;10.892;2022-10-16T09:13:17;18.50;99.90
66094;DHT22;52876;49.394;10.892;2022-10-16T09:15:49;17.70;99.90
66094;DHT22;52876;49.394;10.892;2022-10-16T09:18:22;17.70;99.90
66094;DHT22;52876;49.394;10.892;2022-10-16T09:20:55;17.70;99.90
66094;DHT22;52876;49.394;10.892;2022-10-16T09:23:26;17.50;99.90
66094;DHT22;52876;49.394;10.892;2022-10-16T09:25:55;17.40;99.90
66094;DHT22;52876;49.394;10.892;2022-10-16T09:30:50;17.20;99.90
66094;DHT22;52876;49.394;10.892;2022-10-16T09:33:19;17.30;99.90
66094;DHT22;52876;49.394;10.892;2022-10-16T09:35:46;17.10;99.90
66094;DHT22;52876;49.394;10.892;2022-10-16T09:38:25;17.10;99.90
66094;DHT22;52876;49.394;10.892;2022-10-16T09:40:52;17.10;99.90
66094;DHT22;52876;49.394;10.892;2022-10-16T09:43:23;17.20;99.90
66094;DHT22;52876;49.394;10.892;2022-10-16T09:45:59;17.20;99.90
66094;DHT22;52876;49.394;10.892;2022-10-16T09:48:35;17.30;99.90
66094;DHT22;52876;49.394;10.892;2022-10-16T09:51:04;17.90;99.90
66094;DHT22;52876;49.394;10.892;2022-10-16T09:53:42;17.50;99.90
66094;DHT22;52876;49.394;10.892;2022-10-16T09:56:11;17.40;99.90
66094;DHT22;52876;49.394;10.892;2022-10-16T10:01:13;18.10;99.90
66094;DHT22;52876;49.394;10.892;2022-10-16T10:03:40;17.90;99.90
66094;DHT22;52876;49.394;10.892;2022-10-16T10:06:17;18.40;99.90
66094;DHT22;52876;49.394;10.892;2022-10-16T10:09:14;18.60;99.90
66094;DHT22;52876;49.394;10.892;2022-10-16T10:11:44;18.80;99.90
66094;DHT22;52876;49.394;10.892;2022-10-16T10:14:23;18.90;99.90
66094;DHT22;52876;49.394;10.892;2022-10-16T10:17:07;19.00;99.90
66094;DHT22;52876;49.394;10.892;2022-10-16T10:19:39;19.00;99.90
66094;DHT22;52876;49.394;10.892;2022-10-16T10:22:23;18.90;99.90
66094;DHT22;52876;49.394;10.892;2022-10-16T10:25:21;19.00;99.90
66094;DHT22;52876;49.394;10.892;2022-10-16T10:30:56;19.20;99.90
66094;DHT22;52876;49.394;10.892;2022-10-16T10:33:29;19.30;99.90
66094;DHT22;52876;49.394;10.892;2022-10-16T10:36:06;19.40;99.90
66094;DHT22;52876;49.394;10.892;2022-10-16T10:38:39;19.50;99.90
66094;DHT22;52876;49.394;10.892;2022-10-16T10:41:27;19.80;99.90
66094;DHT22;52876;49.394;10.892;2022-10-16T10:44:03;19.90;99.90
66094;DHT22;52876;49.394;10.892;2022-10-16T10:46:37;20.20;99.90
66094;DHT22;52876;49.394;10.892;2022-10-16T10:49:18;20.10;99.90
66094;DHT22;52876;49.394;10.892;2022-10-16T10:51:57;20.00;99.90
66094;DHT22;52876;49.394;10.892;2022-10-16T10:54:30;19.90;99.90
66094;DHT22;52876;49.394;10.892;2022-10-16T10:57:02;19.40;99.90
66094;DHT22;52876;49.394;10.892;2022-10-16T10:59:47;20.00;99.90
66094;DHT22;52876;49.394;10.892;2022-10-16T11:02:25;20.00;99.90
66094;DHT22;52876;49.394;10.892;2022-10-16T11:05:25;20.10;99.90
66094;DHT22;52876;49.394;10.892;2022-10-16T11:07:57;20.10;99.90
66094;DHT22;52876;49.394;10.892;2022-10-16T11:10:27;19.30;99.90
66094;DHT22;52876;49.394;10.892;2022-10-16T11:12:58;19.90;99.90
66094;DHT22;52876;49.394;10.892;2022-10-16T11:15:30;20.00;99.90
66094;DHT22;52876;49.394;10.892;2022-10-16T11:18:02;20.10;99.90
66094;DHT22;52876;49.394;10.892;2022-10-16T11:20:32;20.20;99.90
66094;DHT22;52876;49.394;10.892;2022-10-16T11:23:04;20.60;99.90
66094;DHT22;52876;49.394;10.892;2022-10-16T11:25:33;20.20;99.90
66094;DHT22;52876;49.394;10.892;2022-10-16T11:30:29;20.50;99.90
66094;DHT22;52876;49.394;10.892;2022-10-16T11:35:38;21.10;99.90
66094;DHT22;52876;49.394;10.892;2022-10-16T11:38:10;20.90;99.90
66094;DHT22;52876;49.394;10.892;2022-10-16T11:40:38;21.20;99.90
66094;DHT22;52876;49.394;10.892;2022-10-16T11:43:12;21.20;99.90
66094;DHT22;52876;49.394;10.892;2022-10-16T11:45:41;21.10;99.90
66094;DHT22;52876;49.394;10.892;2022-10-16T11:48:15;21.20;99.90
66094;DHT22;52876;49.394;10.892;2022-10-16T11:50:49;21.20;99.90
66094;DHT22;52876;49.394;10.892;2022-10-16T11:53:23;21.50;99.90
66094;DHT22;52876;49.394;10.892;2022-10-16T11:58:24;22.20;99.90
66094;DHT22;52876;49.394;10.892;2022-10-16T12:03:28;22.60;99.90
66094;DHT22;52876;49.394;10.892;2022-10-16T12:06:05;22.60;99.90
66094;DHT22;52876;49.394;10.892;2022-10-16T12:08:33;22.70;99.90
66094;DHT22;52876;49.394;10.892;2022-10-16T12:11:09;22.80;99.90
66094;DHT22;52876;49.394;10.892;2022-10-16T12:13:37;23.40;99.90
66094;DHT22;52876;49.394;10.892;2022-10-16T12:16:20;23.50;99.90
66094;DHT22;52876;49.394;10.892;2022-10-16T12:18:46;23.30;99.90
66094;DHT22;52876;49.394;10.892;2022-10-16T12:21:17;23.10;99.90
66094;DHT22;52876;49.394;10.892;2022-10-16T12:23:48;22.80;99.90
66094;DHT22;52876;49.394;10.892;2022-10-16T12:26:24;22.20;99.90
66094;DHT22;52876;49.394;10.892;2022-10-16T12:33:58;21.80;99.90
66094;DHT22;52876;49.394;10.892;2022-10-16T12:36:30;21.90;99.90
66094;DHT22;52876;49.394;10.892;2022-10-16T12:41:25;22.20;99.90
66094;DHT22;52876;49.394;10.892;2022-10-16T12:49:22;22.60;99.90
66094;DHT22;52876;49.394;10.892;2022-10-16T12:51:51;22.90;99.90
66094;DHT22;52876;49.394;10.892;2022-10-16T12:54:18;23.30;99.90
66094;DHT22;52876;49.394;10.892;2022-10-16T12:56:55;23.70;99.90
66094;DHT22;52876;49.394;10.892;2022-10-16T12:59:31;23.70;99.90
66094;DHT22;52876;49.394;10.892;2022-10-16T13:02:16;24.30;99.90
66094;DHT22;52876;49.394;10.892;2022-10-16T13:05:00;25.20;99.90
66094;DHT22;52876;49.394;10.892;2022-10-16T13:07:47;25.30;99.90
66094;DHT22;52876;49.394;10.892;2022-10-16T13:18:26;27.30;99.90
66094;DHT22;52876;49.394;10.892;2022-10-16T13:21:07;27.20;99.90
66094;DHT22;52876;49.394;10.892;2022-10-16T13:23:40;25.90;99.90
66094;DHT22;52876;49.394;10.892;2022-10-16T13:26:16;25.00;99.90
66094;DHT22;52876;49.394;10.892;2022-10-16T13:28:45;24.00;99.90
66094;DHT22;52876;49.394;10.892;2022-10-16T13:31:16;24.60;99.90
66094;DHT22;52876;49.394;10.892;2022-10-16T13:33:46;25.60;99.90
66094;DHT22;52876;49.394;10.892;2022-10-16T13:36:21;26.20;99.90
66094;DHT22;52876;49.394;10.892;2022-10-16T13:39:06;26.60;99.90
66094;DHT22;52876;49.394;10.892;2022-10-16T13:48:59;28.20;99.90
66094;DHT22;52876;49.394;10.892;2022-10-16T13:51:27;27.70;99.90
66094;DHT22;52876;49.394;10.892;2022-10-16T13:53:55;28.20;99.90
66094;DHT22;52876;49.394;10.892;2022-10-16T13:56:22;28.20;99.90
66094;DHT22;52876;49.394;10.892;2022-10-16T13:58:58;28.00;99.90
66094;DHT22;52876;49.394;10.892;2022-10-16T14:01:26;28.10;99.90
66094;DHT22;52876;49.394;10.892;2022-10-16T14:03:53;28.00;99.90
66094;DHT22;52876;49.394;10.892;2022-10-16T14:06:27;28.40;99.90
66094;DHT22;52876;49.394;10.892;2022-10-16T14:08:59;29.20;99.90
66094;DHT22;52876;49.394;10.892;2022-10-16T14:11:27;27.20;99.90
66094;DHT22;52876;49.394;10.892;2022-10-16T14:13:53;27.20;99.90
66094;DHT22;52876;49.394;10.892;2022-10-16T14:16:21;27.00;99.90
66094;DHT22;52876;49.394;10.892;2022-10-16T14:18:55;27.30;99.90
66094;DHT22;52876;49.394;10.892;2022-10-16T14:21:23;27.30;99.90
66094;DHT22;52876;49.394;10.892;2022-10-16T14:26:19;26.80;99.90
66094;DHT22;52876;49.394;10.892;2022-10-16T14:28:46;26.20;99.90
66094;DHT22;52876;49.394;10.892;2022-10-16T14:31:25;24.60;99.90
66094;DHT22;52876;49.394;10.892;2022-10-16T14:33:51;24.70;99.90
66094;DHT22;52876;49.394;10.892;2022-10-16T14:36:18;24.80;99.90
66094;DHT22;52876;49.394;10.892;2022-10-16T14:38:49;24.10;99.90
66094;DHT22;52876;49.394;10.892;2022-10-16T14:41:22;23.50;99.90
66094;DHT22;52876;49.394;10.892;2022-10-16T14:43:51;23.60;99.90
66094;DHT22;52876;49.394;10.892;2022-10-16T14:46:21;24.20;99.90
66094;DHT22;52876;49.394;10.892;2022-10-16T14:48:49;24.90;99.90
66094;DHT22;52876;49.394;10.892;2022-10-16T14:51:16;25.40;99.90
66094;DHT22;52876;49.394;10.892;2022-10-16T14:53:42;25.50;99.90
66094;DHT22;52876;49.394;10.892;2022-10-16T14:56:16;25.30;99.90
66094;DHT22;52876;49.394;10.892;2022-10-16T14:58:44;24.70;99.90
66094;DHT22;52876;49.394;10.892;2022-10-16T15:01:11;23.70;99.90
66094;DHT22;52876;49.394;10.892;2022-10-16T15:03:37;23.40;99.90
66094;DHT22;52876;49.394;10.892;2022-10-16T15:06:09;23.00;99.90
66094;DHT22;52876;49.394;10.892;2022-10-16T15:08:36;22.60;99.90
66094;DHT22;52876;49.394;10.892;2022-10-16T15:11:01;22.50;99.90
66094;DHT22;52876;49.394;10.892;2022-10-16T15:13:27;22.50;99.90
66094;DHT22;52876;49.394;10.892;2022-10-16T15:15:56;22.40;99.90
66094;DHT22;52876;49.394;10.892;2022-10-16T15:18:21;22.30;99.90
66094;DHT22;52876;49.394;10.892;2022-10-16T15:20:49;22.20;99.90
66094;DHT22;52876;49.394;10.892;2022-10-16T15:23:17;22.20;99.90
66094;DHT22;52876;49.394;10.892;2022-10-16T15:25:44;22.00;99.90
66094;DHT22;52876;49.394;10.892;2022-10-16T15:28:11;22.00;99.90
66094;DHT22;52876;49.394;10.892;2022-10-16T15:30:38;21.80;99.90
66094;DHT22;52876;49.394;10.892;2022-10-16T15:33:10;23.00;99.90
66094;DHT22;52876;49.394;10.892;2022-10-16T15:35:38;21.80;99.90
66094;DHT22;52876;49.394;10.892;2022-10-16T15:38:03;21.80;99.90
66094;DHT22;52876;49.394;10.892;2022-10-16T15:40:31;21.60;99.90
66094;DHT22;52876;49.394;10.892;2022-10-16T15:42:57;21.50;99.90
66094;DHT22;52876;49.394;10.892;2022-10-16T15:45:22;21.50;99.90
66094;DHT22;52876;49.394;10.892;2022-10-16T15:47:48;21.30;99.90
66094;DHT22;52876;49.394;10.892;2022-10-16T15:52:45;21.20;99.90
66094;DHT22;52876;49.394;10.892;2022-10-16T15:55:12;21.00;99.90
66094;DHT22;52876;49.394;10.892;2022-10-16T15:57:40;20.90;99.90
66094;DHT22;52876;49.394;10.892;2022-10-16T16:00:07;20.80;99.90
66094;DHT22;52876;49.394;10.892;2022-10-16T16:02:35;20.60;99.90
66094;DHT22;52876;49.394;10.892;2022-10-16T16:05:01;20.50;99.90
66094;DHT22;52876;49.394;10.892;2022-10-16T16:07:32;20.30;99.90
66094;DHT22;52876;49.394;10.892;2022-10-16T16:09:58;20.20;99.90
66094;DHT22;52876;49.394;10.892;2022-10-16T16:12:25;20.10;99.90
66094;DHT22;52876;49.394;10.892;2022-10-16T16:14:50;20.30;99.90
66094;DHT22;52876;49.394;10.892;2022-10-16T16:17:18;20.10;99.90
66094;DHT22;52876;49.394;10.892;2022-10-16T16:19:45;20.10;99.90
66094;DHT22;52876;49.394;10.892;2022-10-16T16:22:12;20.00;99.90
66094;DHT22;52876;49.394;10.892;2022-10-16T16:24:39;20.00;99.90
66094;DHT22;52876;49.394;10.892;2022-10-16T16:27:05;20.00;99.90
66094;DHT22;52876;49.394;10.892;2022-10-16T16:29:30;20.00;99.90
66094;DHT22;52876;49.394;10.892;2022-10-16T16:31:59;20.00;99.90
66094;DHT22;52876;49.394;10.892;2022-10-16T16:34:25;19.90;99.90
66094;DHT22;52876;49.394;10.892;2022-10-16T16:36:52;19.90;99.90
66094;DHT22;52876;49.394;10.892;2022-10-16T16:39:18;19.80;99.90
66094;DHT22;52876;49.394;10.892;2022-10-16T16:41:46;19.80;99.90
66094;DHT22;52876;49.394;10.892;2022-10-16T16:44:13;19.80;99.90
66094;DHT22;52876;49.394;10.892;2022-10-16T16:46:41;19.70;99.90
66094;DHT22;52876;49.394;10.892;2022-10-16T16:51:33;19.50;99.90
66094;DHT22;52876;49.394;10.892;2022-10-16T16:53:59;19.40;99.90
66094;DHT22;52876;49.394;10.892;2022-10-16T16:56:25;19.30;99.90
66094;DHT22;52876;49.394;10.892;2022-10-16T16:58:55;19.30;99.90
66094;DHT22;52876;49.394;10.892;2022-10-16T17:01:22;19.20;99.90
66094;DHT22;52876;49.394;10.892;2022-10-16T17:03:49;19.20;99.90
66094;DHT22;52876;49.394;10.892;2022-10-16T17:06:18;19.20;99.90
66094;DHT22;52876;49.394;10.892;2022-10-16T17:08:44;19.10;99.90
66094;DHT22;52876;49.394;10.892;2022-10-16T17:11:12;19.10;99.90
66094;DHT22;52876;49.394;10.892;2022-10-16T17:13:38;19.10;99.90
66094;DHT22;52876;49.394;10.892;2022-10-16T17:16:06;19.10;99.90
66094;DHT22;52876;49.394;10.892;2022-10-16T17:18:32;19.00;99.90
66094;DHT22;52876;49.394;10.892;2022-10-16T17:20:59;19.00;99.90
66094;DHT22;52876;49.394;10.892;2022-10-16T17:23:25;19.00;99.90
66094;DHT22;52876;49.394;10.892;2022-10-16T17:25:52;19.00;99.90
66094;DHT22;52876;49.394;10.892;2022-10-16T17:28:18;19.00;99.90
66094;DHT22;52876;49.394;10.892;2022-10-16T17:30:44;19.00;99.90
66094;DHT22;52876;49.394;10.892;2022-10-16T17:33:13;19.00;99.90
66094;DHT22;52876;49.394;10.892;2022-10-16T17:35:40;18.90;99.90
66094;DHT22;52876;49.394;10.892;2022-10-16T17:38:06;19.00;99.90
66094;DHT22;52876;49.394;10.892;2022-10-16T17:42:59;19.00;99.90
66094;DHT22;52876;49.394;10.892;2022-10-16T17:45:26;19.00;99.90
66094;DHT22;52876;49.394;10.892;2022-10-16T17:47:52;18.90;99.90
66094;DHT22;52876;49.394;10.892;2022-10-16T17:50:21;18.90;99.90
66094;DHT22;52876;49.394;10.892;2022-10-16T17:52:48;18.90;99.90
66094;DHT22;52876;49.394;10.892;2022-10-16T17:55:14;18.90;99.90
66094;DHT22;52876;49.394;10.892;2022-10-16T17:57:41;18.90;99.90
66094;DHT22;52876;49.394;10.892;2022-10-16T18:00:08;18.80;99.90
66094;DHT22;52876;49.394;10.892;2022-10-16T18:02:35;18.80;99.90
66094;DHT22;52876;49.394;10.892;2022-10-16T18:05:01;18.70;99.90
66094;DHT22;52876;49.394;10.892;2022-10-16T18:07:30;18.70;99.90
66094;DHT22;52876;49.394;10.892;2022-10-16T18:09:56;18.70;99.90
66094;DHT22;52876;49.394;10.892;2022-10-16T18:12:23;18.70;99.90
66094;DHT22;52876;49.394;10.892;2022-10-16T18:14:49;18.70;99.90
66094;DHT22;52876;49.394;10.892;2022-10-16T18:19:42;18.70;99.90
66094;DHT22;52876;49.394;10.892;2022-10-16T18:22:08;18.70;99.90
66094;DHT22;52876;49.394;10.892;2022-10-16T18:24:35;18.70;99.90
66094;DHT22;52876;49.394;10.892;2022-10-16T18:27:00;18.70;99.90
66094;DHT22;52876;49.394;10.892;2022-10-16T18:29:26;18.70;99.90
66094;DHT22;52876;49.394;10.892;2022-10-16T18:31:53;18.70;99.90
66094;DHT22;52876;49.394;10.892;2022-10-16T18:34:19;18.80;99.90
66094;DHT22;52876;49.394;10.892;2022-10-16T18:36:46;18.80;99.90
66094;DHT22;52876;49.394;10.892;2022-10-16T18:39:12;18.70;99.90
66094;DHT22;52876;49.394;10.892;2022-10-16T18:41:42;18.70;99.90
66094;DHT22;52876;49.394;10.892;2022-10-16T18:44:08;18.70;99.90
66094;DHT22;52876;49.394;10.892;2022-10-16T18:46:34;18.70;99.90
66094;DHT22;52876;49.394;10.892;2022-10-16T18:48:59;18.60;99.90
66094;DHT22;52876;49.394;10.892;2022-10-16T18:51:26;18.60;99.90
66094;DHT22;52876;49.394;10.892;2022-10-16T18:53:54;18.60;99.90
66094;DHT22;52876;49.394;10.892;2022-10-16T18:56:23;18.60;99.90
66094;DHT22;52876;49.394;10.892;2022-10-16T18:58:51;18.50;99.90
66094;DHT22;52876;49.394;10.892;2022-10-16T19:01:18;18.40;99.90
66094;DHT22;52876;49.394;10.892;2022-10-16T19:03:44;18.40;99.90
66094;DHT22;52876;49.394;10.892;2022-10-16T19:06:13;18.30;99.90
66094;DHT22;52876;49.394;10.892;2022-10-16T19:08:40;18.20;99.90
66094;DHT22;52876;49.394;10.892;2022-10-16T19:11:10;18.30;99.90
66094;DHT22;52876;49.394;10.892;2022-10-16T19:13:36;18.30;99.90
66094;DHT22;52876;49.394;10.892;2022-10-16T19:16:07;18.20;99.90
66094;DHT22;52876;49.394;10.892;2022-10-16T19:18:33;18.20;99.90
66094;DHT22;52876;49.394;10.892;2022-10-16T19:21:00;18.20;99.90
66094;DHT22;52876;49.394;10.892;2022-10-16T19:23:26;18.10;99.90
66094;DHT22;52876;49.394;10.892;2022-10-16T19:25:52;18.10;99.90
66094;DHT22;52876;49.394;10.892;2022-10-16T19:28:17;17.90;99.90
66094;DHT22;52876;49.394;10.892;2022-10-16T19:33:11;17.80;99.90
66094;DHT22;52876;49.394;10.892;2022-10-16T19:35:38;17.70;99.90
66094;DHT22;52876;49.394;10.892;2022-10-16T19:38:04;17.70;99.90
66094;DHT22;52876;49.394;10.892;2022-10-16T19:40:31;17.70;99.90
66094;DHT22;52876;49.394;10.892;2022-10-16T19:42:57;17.70;99.90
66094;DHT22;52876;49.394;10.892;2022-10-16T19:45:24;17.70;99.90
66094;DHT22;52876;49.394;10.892;2022-10-16T19:47:50;17.70;99.90
66094;DHT22;52876;49.394;10.892;2022-10-16T19:50:17;17.60;99.90
66094;DHT22;52876;49.394;10.892;2022-10-16T19:52:44;17.60;99.90
66094;DHT22;52876;49.394;10.892;2022-10-16T19:57:38;17.50;99.90
66094;DHT22;52876;49.394;10.892;2022-10-16T20:00:06;17.50;99.90
66094;DHT22;52876;49.394;10.892;2022-10-16T20:02:34;17.30;99.90
66094;DHT22;52876;49.394;10.892;2022-10-16T20:05:00;17.30;99.90
66094;DHT22;52876;49.394;10.892;2022-10-16T20:07:28;17.30;99.90
66094;DHT22;52876;49.394;10.892;2022-10-16T20:09:54;17.20;99.90
66094;DHT22;52876;49.394;10.892;2022-10-16T20:12:20;17.20;99.90
66094;DHT22;52876;49.394;10.892;2022-10-16T20:14:45;17.20;99.90
66094;DHT22;52876;49.394;10.892;2022-10-16T20:17:13;17.10;99.90
66094;DHT22;52876;49.394;10.892;2022-10-16T20:19:38;17.10;99.90
66094;DHT22;52876;49.394;10.892;2022-10-16T20:22:06;17.00;99.90
66094;DHT22;52876;49.394;10.892;2022-10-16T20:24:33;17.00;99.90
66094;DHT22;52876;49.394;10.892;2022-10-16T20:27:00;17.00;99.90
66094;DHT22;52876;49.394;10.892;2022-10-16T20:29:26;17.00;99.90
66094;DHT22;52876;49.394;10.892;2022-10-16T20:31:53;16.90;99.90
66094;DHT22;52876;49.394;10.892;2022-10-16T20:34:19;16.90;99.90
66094;DHT22;52876;49.394;10.892;2022-10-16T20:36:46;16.90;99.90
66094;DHT22;52876;49.394;10.892;2022-10-16T20:39:12;16.80;99.90
66094;DHT22;52876;49.394;10.892;2022-10-16T20:41:39;16.80;99.90
66094;DHT22;52876;49.394;10.892;2022-10-16T20:44:05;16.80;99.90
66094;DHT22;52876;49.394;10.892;2022-10-16T20:46:31;16.80;99.90
66094;DHT22;52876;49.394;10.892;2022-10-16T20:48:57;16.70;99.90
66094;DHT22;52876;49.394;10.892;2022-10-16T20:51:26;16.70;99.90
66094;DHT22;52876;49.394;10.892;2022-10-16T20:53:53;16.70;99.90
66094;DHT22;52876;49.394;10.892;2022-10-16T20:56:19;16.70;99.90
66094;DHT22;52876;49.394;10.892;2022-10-16T20:58:46;16.70;99.90
66094;DHT22;52876;49.394;10.892;2022-10-16T21:01:13;16.60;99.90
66094;DHT22;52876;49.394;10.892;2022-10-16T21:03:40;16.60;99.90
66094;DHT22;52876;49.394;10.892;2022-10-16T21:06:08;16.60;99.90
66094;DHT22;52876;49.394;10.892;2022-10-16T21:08:34;16.60;99.90
66094;DHT22;52876;49.394;10.892;2022-10-16T21:11:09;16.70;99.90
66094;DHT22;52876;49.394;10.892;2022-10-16T21:13:34;16.60;99.90
66094;DHT22;52876;49.394;10.892;2022-10-16T21:16:02;16.60;99.90
66094;DHT22;52876;49.394;10.892;2022-10-16T21:18:28;16.50;99.90
66094;DHT22;52876;49.394;10.892;2022-10-16T21:20:54;16.50;99.90
66094;DHT22;52876;49.394;10.892;2022-10-16T21:23:20;16.50;99.90
66094;DHT22;52876;49.394;10.892;2022-10-16T21:25:49;16.30;99.90
66094;DHT22;52876;49.394;10.892;2022-10-16T21:28:15;16.30;99.90
66094;DHT22;52876;49.394;10.892;2022-10-16T21:30:41;16.20;99.90
66094;DHT22;52876;49.394;10.892;2022-10-16T21:33:08;16.20;99.90
66094;DHT22;52876;49.394;10.892;2022-10-16T21:35:35;16.10;99.90
66094;DHT22;52876;49.394;10.892;2022-10-16T21:40:28;16.20;99.90
66094;DHT22;52876;49.394;10.892;2022-10-16T21:42:54;16.10;99.90